createdAt,value
2023-05-02T00:00:57.794Z,4.20
2023-05-02T00:01:57.926Z,4.40
2023-05-02T00:02:57.900Z,4.40
2023-05-02T00:03:57.816Z,4.20
2023-05-02T00:04:57.819Z,4.40
2023-05-02T00:05:57.889Z,4.00
2023-05-02T00:06:57.891Z,4.30
2023-05-02T00:07:57.723Z,4.20
2023-05-02T00:08:57.723Z,4.30
2023-05-02T00:09:58.215Z,4.20
2023-05-02T00:10:57.688Z,4.00
2023-05-02T00:11:57.687Z,3.90
2023-05-02T00:12:57.683Z,3.80
2023-05-02T00:13:57.664Z,3.90
2023-05-02T00:14:57.660Z,3.90
2023-05-02T00:15:57.656Z,4.20
2023-05-02T00:16:57.727Z,3.80
2023-05-02T00:17:57.660Z,3.80
2023-05-02T00:18:57.622Z,4.00
2023-05-02T00:19:57.873Z,4.00
2023-05-02T00:20:57.589Z,4.10
2023-05-02T00:21:57.590Z,4.30
2023-05-02T00:22:57.589Z,3.90
2023-05-02T00:23:57.577Z,4.50
2023-05-02T00:24:57.594Z,3.90
2023-05-02T00:25:57.537Z,3.90
2023-05-02T00:26:57.534Z,4.00
2023-05-02T00:27:57.521Z,4.00
2023-05-02T00:28:57.504Z,4.30
2023-05-02T00:29:57.676Z,4.20
2023-05-02T00:30:57.527Z,3.90
2023-05-02T00:31:57.487Z,3.90
2023-05-02T00:32:57.531Z,4.30
2023-05-02T00:33:57.457Z,4.30
2023-05-02T00:34:57.477Z,4.40
2023-05-02T00:35:57.440Z,4.10
2023-05-02T00:36:57.421Z,4.40
2023-05-02T00:37:57.409Z,4.30
2023-05-02T00:38:57.499Z,4.30
2023-05-02T00:39:57.702Z,4.50
2023-05-02T00:40:57.383Z,4.70
2023-05-02T00:41:57.368Z,4.70
2023-05-02T00:42:57.350Z,4.70
2023-05-02T00:43:57.347Z,4.80
2023-05-02T00:44:57.357Z,4.40
2023-05-02T00:45:57.344Z,4.70
2023-05-02T00:46:57.354Z,4.60
2023-05-02T00:47:57.364Z,4.60
2023-05-02T00:48:57.293Z,4.90
2023-05-02T00:49:57.419Z,4.90
2023-05-02T00:50:57.286Z,5.10
2023-05-02T00:51:57.265Z,4.90
2023-05-02T00:52:57.256Z,4.90
2023-05-02T00:53:57.240Z,5.10
2023-05-02T00:54:58.302Z,5.00
2023-05-02T00:55:57.221Z,5.30
2023-05-02T00:56:57.215Z,5.60
2023-05-02T00:57:57.198Z,5.70
2023-05-02T00:58:57.204Z,5.20
2023-05-02T00:59:57.409Z,5.30
2023-05-02T01:00:57.170Z,6.10
2023-05-02T01:01:57.240Z,6.20
2023-05-02T01:02:57.238Z,6.00
2023-05-02T01:03:57.249Z,6.10
2023-05-02T01:04:57.155Z,6.70
2023-05-02T01:05:57.116Z,6.20
2023-05-02T01:06:57.108Z,6.10
2023-05-02T01:07:57.092Z,6.30
2023-05-02T01:08:57.083Z,6.00
2023-05-02T01:09:57.318Z,5.80
2023-05-02T01:10:57.072Z,6.30
2023-05-02T01:11:57.074Z,6.90
2023-05-02T01:12:57.043Z,6.70
2023-05-02T01:13:57.034Z,6.40
2023-05-02T01:14:57.043Z,6.40
2023-05-02T01:15:57.041Z,6.30
2023-05-02T01:16:57.007Z,6.30
2023-05-02T01:17:57.060Z,6.60
2023-05-02T01:18:56.983Z,6.50
2023-05-02T01:19:57.084Z,6.20
2023-05-02T01:20:56.959Z,6.90
2023-05-02T01:21:56.951Z,7.80
2023-05-02T01:22:56.936Z,7.90
2023-05-02T01:23:56.944Z,6.90
2023-05-02T01:24:56.932Z,7.40
2023-05-02T01:25:56.986Z,7.10
2023-05-02T01:26:56.903Z,7.20
2023-05-02T01:27:56.880Z,7.90
2023-05-02T01:28:56.869Z,7.60
2023-05-02T01:29:56.888Z,7.80
2023-05-02T01:30:56.852Z,7.30
2023-05-02T01:31:56.944Z,7.80
2023-05-02T01:32:56.850Z,7.20
2023-05-02T01:33:56.840Z,7.90
2023-05-02T01:34:56.819Z,8.20
2023-05-02T01:35:56.799Z,8.00
2023-05-02T01:36:56.799Z,7.70
2023-05-02T01:37:56.785Z,7.90
2023-05-02T01:38:56.789Z,8.30
2023-05-02T01:39:56.757Z,8.00
2023-05-02T01:40:56.764Z,8.80
2023-05-02T01:41:56.746Z,8.50
2023-05-02T01:42:56.730Z,10.40
2023-05-02T01:43:56.731Z,9.80
2023-05-02T01:44:56.733Z,10.50
2023-05-02T01:45:56.701Z,11.30
2023-05-02T01:46:56.763Z,10.90
2023-05-02T01:47:56.735Z,10.70
2023-05-02T01:48:56.677Z,11.30
2023-05-02T01:49:56.766Z,11.00
2023-05-02T01:50:56.649Z,12.00
2023-05-02T01:51:56.637Z,11.90
2023-05-02T01:52:56.626Z,11.90
2023-05-02T01:53:56.615Z,11.10
2023-05-02T01:54:56.618Z,12.20
2023-05-02T01:55:56.597Z,11.60
2023-05-02T01:56:56.589Z,12.90
2023-05-02T01:57:56.574Z,13.10
2023-05-02T01:58:56.585Z,12.60
2023-05-02T01:59:56.638Z,13.10
2023-05-02T02:00:56.596Z,12.10
2023-05-02T02:01:56.530Z,13.20
2023-05-02T02:02:56.555Z,12.90
2023-05-02T02:03:56.542Z,13.10
2023-05-02T02:04:56.513Z,13.00
2023-05-02T02:05:56.494Z,13.40
2023-05-02T02:06:56.492Z,13.50
2023-05-02T02:07:56.467Z,13.40
2023-05-02T02:08:56.456Z,13.10
2023-05-02T02:09:56.470Z,13.50
2023-05-02T02:10:56.438Z,13.30
2023-05-02T02:11:56.435Z,12.90
2023-05-02T02:12:56.420Z,13.40
2023-05-02T02:13:56.425Z,12.70
2023-05-02T02:14:56.406Z,13.60
2023-05-02T02:15:56.383Z,13.60
2023-05-02T02:16:56.432Z,13.90
2023-05-02T02:17:56.401Z,13.40
2023-05-02T02:18:56.393Z,13.20
2023-05-02T02:19:56.381Z,13.60
2023-05-02T02:20:56.344Z,13.10
2023-05-02T02:21:56.342Z,13.70
2023-05-02T02:22:56.314Z,14.00
2023-05-02T02:23:56.313Z,14.30
2023-05-02T02:24:56.303Z,14.20
2023-05-02T02:25:56.284Z,14.20
2023-05-02T02:26:56.282Z,13.30
2023-05-02T02:27:56.262Z,14.20
2023-05-02T02:28:56.248Z,13.70
2023-05-02T02:29:56.251Z,14.10
2023-05-02T02:30:56.269Z,14.20
2023-05-02T02:31:56.215Z,13.90
2023-05-02T02:32:56.267Z,14.20
2023-05-02T02:33:56.202Z,14.20
2023-05-02T02:34:56.356Z,13.80
2023-05-02T02:35:56.184Z,14.00
2023-05-02T02:36:56.170Z,13.60
2023-05-02T02:37:56.157Z,13.90
2023-05-02T02:38:56.143Z,13.50
2023-05-02T02:39:56.130Z,13.80
2023-05-02T02:40:56.140Z,13.90
2023-05-02T02:41:56.111Z,13.40
2023-05-02T02:42:56.117Z,13.60
2023-05-02T02:43:56.099Z,14.10
2023-05-02T02:44:56.107Z,14.20
2023-05-02T02:45:56.211Z,13.80
2023-05-02T02:46:56.064Z,13.10
2023-05-02T02:47:56.133Z,13.20
2023-05-02T02:48:56.049Z,13.90
2023-05-02T02:49:56.041Z,14.00
2023-05-02T02:50:56.078Z,13.50
2023-05-02T02:51:56.008Z,13.70
2023-05-02T02:52:55.996Z,14.00
2023-05-02T02:53:55.986Z,13.90
2023-05-02T02:54:55.971Z,14.10
2023-05-02T02:55:55.983Z,14.10
2023-05-02T02:56:55.962Z,14.30
2023-05-02T02:57:55.946Z,13.70
2023-05-02T02:58:55.940Z,13.60
2023-05-02T02:59:55.928Z,14.10
2023-05-02T03:00:55.945Z,14.50
2023-05-02T03:01:55.936Z,14.00
2023-05-02T03:02:55.928Z,14.60
2023-05-02T03:03:55.949Z,13.70
2023-05-02T03:04:55.878Z,14.80
2023-05-02T03:05:55.870Z,13.70
2023-05-02T03:06:56.015Z,14.30
2023-05-02T03:07:55.844Z,14.10
2023-05-02T03:08:55.831Z,14.20
2023-05-02T03:09:55.823Z,13.90
2023-05-02T03:10:55.823Z,14.60
2023-05-02T03:11:55.800Z,14.70
2023-05-02T03:12:56.133Z,15.40
2023-05-02T03:13:55.785Z,14.70
2023-05-02T03:14:55.765Z,14.60
2023-05-02T03:15:55.823Z,14.40
2023-05-02T03:16:55.757Z,14.60
2023-05-02T03:17:55.785Z,15.10
2023-05-02T03:18:55.825Z,14.50
2023-05-02T03:19:55.720Z,14.70
2023-05-02T03:20:55.726Z,15.00
2023-05-02T03:21:55.703Z,14.30
2023-05-02T03:22:55.687Z,15.80
2023-05-02T03:23:55.681Z,16.00
2023-05-02T03:24:55.670Z,16.70
2023-05-02T03:25:55.686Z,15.90
2023-05-02T03:26:55.647Z,16.20
2023-05-02T03:27:55.640Z,15.90
2023-05-02T03:28:55.628Z,16.30
2023-05-02T03:29:55.626Z,16.30
2023-05-02T03:30:55.611Z,16.40
2023-05-02T03:31:55.671Z,17.10
2023-05-02T03:32:55.613Z,16.70
2023-05-02T03:33:55.571Z,17.70
2023-05-02T03:34:55.569Z,17.10
2023-05-02T03:35:55.573Z,17.60
2023-05-02T03:36:55.584Z,16.00
2023-05-02T03:37:55.553Z,17.10
2023-05-02T03:38:55.534Z,17.40
2023-05-02T03:39:55.516Z,18.30
2023-05-02T03:40:55.542Z,17.80
2023-05-02T03:41:55.510Z,17.80
2023-05-02T03:42:55.491Z,17.80
2023-05-02T03:43:55.482Z,18.80
2023-05-02T03:44:55.474Z,17.70
2023-05-02T03:45:55.460Z,18.60
2023-05-02T03:46:56.494Z,18.20
2023-05-02T03:47:55.548Z,19.40
2023-05-02T03:48:55.429Z,18.90
2023-05-02T03:49:55.419Z,18.90
2023-05-02T03:50:55.418Z,18.90
2023-05-02T03:51:55.410Z,18.40
2023-05-02T03:52:55.391Z,19.30
2023-05-02T03:53:55.383Z,18.40
2023-05-02T03:54:55.380Z,20.30
2023-05-02T03:55:55.395Z,19.50
2023-05-02T03:56:55.368Z,20.00
2023-05-02T03:57:55.400Z,21.00
2023-05-02T03:58:55.329Z,19.60
2023-05-02T03:59:55.329Z,19.50
2023-05-02T04:00:55.319Z,20.00
2023-05-02T04:01:56.309Z,20.60
2023-05-02T04:02:55.400Z,19.40
2023-05-02T04:03:55.316Z,20.50
2023-05-02T04:04:55.268Z,21.10
2023-05-02T04:05:55.269Z,22.20
2023-05-02T04:06:55.310Z,22.20
2023-05-02T04:07:55.246Z,23.50
2023-05-02T04:08:55.227Z,22.90
2023-05-02T04:09:55.219Z,23.30
2023-05-02T04:10:55.221Z,23.60
2023-05-02T04:11:55.201Z,23.70
2023-05-02T04:12:55.189Z,23.40
2023-05-02T04:13:55.178Z,23.60
2023-05-02T04:14:55.183Z,23.60
2023-05-02T04:15:55.173Z,23.50
2023-05-02T04:16:55.263Z,25.00
2023-05-02T04:17:55.218Z,26.10
2023-05-02T04:18:55.136Z,26.20
2023-05-02T04:19:55.123Z,26.40
2023-05-02T04:20:55.129Z,26.30
2023-05-02T04:21:55.100Z,26.40
2023-05-02T04:22:55.096Z,27.80
2023-05-02T04:23:55.084Z,27.10
2023-05-02T04:24:55.077Z,28.40
2023-05-02T04:25:55.066Z,29.70
2023-05-02T04:26:55.050Z,28.20
2023-05-02T04:27:55.053Z,29.10
2023-05-02T04:28:55.039Z,30.70
2023-05-02T04:29:55.023Z,29.70
2023-05-02T04:30:55.061Z,30.10
2023-05-02T04:31:55.021Z,30.70
2023-05-02T04:32:55.041Z,30.30
2023-05-02T04:33:54.985Z,31.60
2023-05-02T04:34:54.970Z,30.60
2023-05-02T04:35:54.953Z,32.60
2023-05-02T04:36:54.964Z,31.90
2023-05-02T04:37:54.943Z,35.10
2023-05-02T04:38:54.944Z,34.90
2023-05-02T04:39:54.914Z,35.50
2023-05-02T04:40:54.898Z,35.60
2023-05-02T04:41:54.905Z,37.60
2023-05-02T04:42:54.895Z,36.50
2023-05-02T04:43:54.873Z,36.90
2023-05-02T04:44:54.862Z,36.60
2023-05-02T04:45:54.888Z,36.90
2023-05-02T04:46:54.904Z,36.40
2023-05-02T04:47:54.863Z,36.90
2023-05-02T04:48:54.836Z,35.80
2023-05-02T04:49:54.808Z,35.80
2023-05-02T04:50:54.795Z,37.60
2023-05-02T04:51:54.800Z,35.90
2023-05-02T04:52:54.798Z,37.40
2023-05-02T04:53:54.761Z,36.40
2023-05-02T04:54:54.761Z,37.60
2023-05-02T04:55:54.744Z,37.70
2023-05-02T04:56:54.740Z,36.70
2023-05-02T04:57:54.721Z,37.60
2023-05-02T04:58:54.710Z,36.30
2023-05-02T04:59:54.696Z,36.60
2023-05-02T05:00:54.694Z,37.50
2023-05-02T05:01:54.700Z,37.50
2023-05-02T05:02:54.791Z,37.20
2023-05-02T05:03:54.778Z,37.50
2023-05-02T05:04:54.693Z,35.70
2023-05-02T05:05:54.649Z,36.50
2023-05-02T05:06:54.696Z,36.50
2023-05-02T05:07:54.619Z,36.40
2023-05-02T05:08:54.615Z,35.70
2023-05-02T05:09:54.604Z,35.60
2023-05-02T05:10:54.585Z,36.10
2023-05-02T05:11:54.587Z,36.70
2023-05-02T05:12:54.567Z,35.80
2023-05-02T05:13:54.551Z,35.70
2023-05-02T05:14:54.545Z,37.10
2023-05-02T05:15:55.589Z,35.70
2023-05-02T05:16:54.550Z,35.60
2023-05-02T05:17:54.568Z,36.90
2023-05-02T05:18:54.508Z,35.60
2023-05-02T05:19:54.506Z,35.10
2023-05-02T05:20:54.483Z,35.30
2023-05-02T05:21:54.488Z,36.30
2023-05-02T05:22:54.461Z,36.70
2023-05-02T05:23:54.448Z,36.10
2023-05-02T05:24:54.455Z,35.50
2023-05-02T05:25:54.430Z,35.70
2023-05-02T05:26:54.441Z,37.20
2023-05-02T05:27:54.429Z,36.70
2023-05-02T05:28:54.400Z,36.50
2023-05-02T05:29:54.409Z,37.40
2023-05-02T05:30:54.387Z,36.40
2023-05-02T05:31:54.409Z,34.80
2023-05-02T05:32:54.442Z,34.30
2023-05-02T05:33:54.454Z,35.60
2023-05-02T05:34:54.338Z,36.50
2023-05-02T05:35:54.334Z,35.10
2023-05-02T05:36:54.333Z,34.70
2023-05-02T05:37:54.307Z,34.30
2023-05-02T05:38:54.300Z,34.00
2023-05-02T05:39:54.284Z,34.70
2023-05-02T05:40:54.278Z,34.00
2023-05-02T05:41:54.274Z,33.20
2023-05-02T05:42:54.250Z,34.70
2023-05-02T05:43:54.244Z,33.50
2023-05-02T05:44:54.244Z,33.20
2023-05-02T05:45:54.224Z,34.50
2023-05-02T05:46:54.310Z,34.50
2023-05-02T05:47:54.257Z,32.30
2023-05-02T05:48:54.193Z,32.80
2023-05-02T05:49:54.181Z,33.90
2023-05-02T05:50:54.175Z,33.70
2023-05-02T05:51:54.179Z,34.20
2023-05-02T05:52:54.155Z,33.60
2023-05-02T05:53:54.142Z,32.30
2023-05-02T05:54:54.127Z,33.40
2023-05-02T05:55:54.146Z,31.90
2023-05-02T05:56:54.123Z,31.70
2023-05-02T05:57:54.099Z,32.70
2023-05-02T05:58:54.094Z,31.90
2023-05-02T05:59:54.087Z,32.90
2023-05-02T06:00:54.079Z,32.40
2023-05-02T06:01:54.074Z,32.30
2023-05-02T06:02:54.186Z,31.10
2023-05-02T06:03:54.094Z,31.20
2023-05-02T06:04:54.099Z,32.60
2023-05-02T06:05:54.020Z,31.30
2023-05-02T06:06:54.035Z,30.30
2023-05-02T06:07:53.993Z,31.20
2023-05-02T06:08:53.993Z,30.50
2023-05-02T06:09:53.984Z,31.10
2023-05-02T06:10:53.970Z,30.70
2023-05-02T06:11:53.965Z,30.20
2023-05-02T06:12:53.959Z,30.60
2023-05-02T06:13:53.943Z,30.60
2023-05-02T06:14:53.930Z,27.30
2023-05-02T06:15:53.961Z,26.50
2023-05-02T06:16:54.074Z,25.70
2023-05-02T06:17:53.911Z,25.40
2023-05-02T06:18:53.883Z,24.00
2023-05-02T06:19:53.876Z,26.40
2023-05-02T06:20:53.856Z,23.60
2023-05-02T06:21:53.868Z,24.90
2023-05-02T06:22:53.845Z,24.10
2023-05-02T06:23:53.840Z,23.10
2023-05-02T06:24:53.834Z,21.70
2023-05-02T06:25:53.818Z,21.30
2023-05-02T06:26:53.802Z,19.90
2023-05-02T06:27:53.809Z,17.60
2023-05-02T06:28:53.783Z,18.10
2023-05-02T06:29:53.766Z,19.30
2023-05-02T06:30:53.760Z,17.80
2023-05-02T06:31:53.854Z,17.40
2023-05-02T06:32:53.770Z,17.50
2023-05-02T06:33:53.765Z,18.60
2023-05-02T06:34:53.720Z,18.40
2023-05-02T06:35:53.707Z,18.60
2023-05-02T06:36:53.709Z,19.00
2023-05-02T06:37:53.702Z,19.50
2023-05-02T06:38:53.681Z,18.00
2023-05-02T06:39:53.663Z,19.90
2023-05-02T06:40:53.662Z,20.30
2023-05-02T06:41:53.649Z,20.00
2023-05-02T06:42:53.645Z,20.50
2023-05-02T06:43:53.623Z,21.10
2023-05-02T06:44:53.625Z,20.50
2023-05-02T06:45:53.601Z,21.00
2023-05-02T06:46:53.657Z,20.50
2023-05-02T06:47:53.628Z,20.10
2023-05-02T06:48:53.602Z,19.90
2023-05-02T06:49:53.564Z,19.80
2023-05-02T06:50:53.555Z,19.80
2023-05-02T06:51:53.540Z,20.30
2023-05-02T06:52:53.553Z,19.90
2023-05-02T06:53:53.525Z,20.00
2023-05-02T06:54:53.512Z,19.10
2023-05-02T06:55:53.511Z,18.00
2023-05-02T06:56:53.492Z,18.70
2023-05-02T06:57:53.497Z,19.00
2023-05-02T06:58:53.472Z,17.10
2023-05-02T06:59:53.461Z,17.40
2023-05-02T07:00:53.492Z,15.80
2023-05-02T07:01:53.442Z,16.20
2023-05-02T07:02:53.472Z,16.00
2023-05-02T07:03:53.427Z,16.30
2023-05-02T07:04:53.412Z,14.00
2023-05-02T07:05:53.412Z,15.00
2023-05-02T07:06:53.405Z,14.70
2023-05-02T07:07:53.486Z,14.40
2023-05-02T07:08:53.365Z,14.70
2023-05-02T07:09:53.350Z,14.00
2023-05-02T07:10:53.336Z,14.30
2023-05-02T07:11:53.334Z,13.40
2023-05-02T07:12:53.355Z,13.20
2023-05-02T07:13:53.315Z,13.70
2023-05-02T07:14:53.316Z,14.60
2023-05-02T07:15:53.293Z,14.30
2023-05-02T07:16:53.324Z,13.30
2023-05-02T07:17:53.317Z,13.10
2023-05-02T07:18:53.256Z,13.20
2023-05-02T07:19:53.250Z,12.70
2023-05-02T07:20:53.289Z,12.40
2023-05-02T07:21:53.220Z,12.40
2023-05-02T07:22:53.226Z,11.60
2023-05-02T07:23:53.212Z,11.70
2023-05-02T07:24:53.197Z,11.20
2023-05-02T07:25:53.189Z,9.70
2023-05-02T07:26:53.208Z,10.90
2023-05-02T07:27:53.181Z,10.80
2023-05-02T07:28:53.156Z,10.30
2023-05-02T07:29:53.149Z,11.80
2023-05-02T07:30:53.219Z,10.70
2023-05-02T07:31:53.160Z,11.00
2023-05-02T07:32:53.164Z,11.10
2023-05-02T07:33:53.109Z,10.80
2023-05-02T07:34:53.102Z,10.30
2023-05-02T07:35:53.093Z,10.30
2023-05-02T07:36:53.067Z,10.40
2023-05-02T07:37:53.075Z,10.20
2023-05-02T07:38:53.063Z,9.30
2023-05-02T07:39:53.045Z,9.30
2023-05-02T07:40:53.035Z,9.60
2023-05-02T07:41:53.030Z,9.20
2023-05-02T07:42:53.031Z,9.10
2023-05-02T07:43:53.000Z,9.70
2023-05-02T07:44:53.012Z,9.40
2023-05-02T07:45:53.045Z,9.80
2023-05-02T07:46:52.989Z,9.60
2023-05-02T07:47:52.996Z,9.40
2023-05-02T07:48:52.952Z,9.00
2023-05-02T07:49:52.945Z,9.90
2023-05-02T07:50:52.929Z,9.70
2023-05-02T07:51:52.925Z,8.70
2023-05-02T07:52:52.926Z,9.10
2023-05-02T07:53:52.900Z,8.80
2023-05-02T07:54:52.904Z,9.70
2023-05-02T07:55:52.896Z,9.50
2023-05-02T07:56:52.869Z,9.80
2023-05-02T07:57:52.864Z,9.70
2023-05-02T07:58:52.855Z,9.30
2023-05-02T07:59:52.841Z,9.50
2023-05-02T08:00:52.832Z,9.40
2023-05-02T08:01:52.830Z,9.40
2023-05-02T08:02:52.954Z,9.30
2023-05-02T08:03:53.015Z,9.80
2023-05-02T08:04:52.825Z,9.40
2023-05-02T08:05:52.778Z,9.90
2023-05-02T08:06:52.931Z,9.20
2023-05-02T08:07:52.770Z,10.20
2023-05-02T08:08:52.751Z,9.00
2023-05-02T08:09:52.730Z,9.80
2023-05-02T08:10:52.723Z,9.60
2023-05-02T08:11:52.713Z,9.00
2023-05-02T08:12:52.716Z,9.30
2023-05-02T08:13:52.694Z,9.30
2023-05-02T08:14:52.693Z,9.40
2023-05-02T08:15:52.695Z,8.20
2023-05-02T08:16:52.720Z,8.70
2023-05-02T08:17:52.716Z,9.60
2023-05-02T08:18:52.648Z,8.50
2023-05-02T08:19:52.635Z,8.10
2023-05-02T08:20:52.637Z,8.30
2023-05-02T08:21:52.619Z,8.30
2023-05-02T08:22:52.617Z,8.00
2023-05-02T08:23:52.596Z,7.70
2023-05-02T08:24:52.587Z,7.80
2023-05-02T08:25:52.591Z,7.00
2023-05-02T08:26:52.560Z,7.50
2023-05-02T08:27:52.558Z,7.40
2023-05-02T08:28:52.546Z,7.50
2023-05-02T08:29:52.552Z,7.20
2023-05-02T08:30:52.521Z,6.60
2023-05-02T08:31:52.588Z,6.20
2023-05-02T08:32:52.557Z,6.80
2023-05-02T08:33:52.498Z,6.90
2023-05-02T08:34:52.489Z,6.70
2023-05-02T08:35:52.482Z,6.20
2023-05-02T08:36:52.469Z,6.00
2023-05-02T08:37:52.464Z,6.40
2023-05-02T08:38:52.451Z,5.40
2023-05-02T08:39:52.435Z,5.70
2023-05-02T08:40:52.461Z,5.40
2023-05-02T08:41:52.417Z,5.80
2023-05-02T08:42:52.448Z,5.20
2023-05-02T08:43:52.393Z,4.50
2023-05-02T08:44:52.399Z,4.30
2023-05-02T08:45:52.379Z,4.20
2023-05-02T08:46:52.383Z,4.50
2023-05-02T08:47:52.468Z,5.20
2023-05-02T08:48:52.351Z,5.00
2023-05-02T08:49:52.328Z,5.30
2023-05-02T08:50:52.324Z,5.30
2023-05-02T08:51:52.317Z,5.40
2023-05-02T08:52:52.319Z,5.20
2023-05-02T08:53:52.320Z,5.20
2023-05-02T08:54:52.296Z,5.40
2023-05-02T08:55:52.273Z,5.10
2023-05-02T08:56:52.258Z,4.80
2023-05-02T08:57:52.256Z,5.50
2023-05-02T08:58:52.256Z,5.20
2023-05-02T08:59:52.231Z,4.80
2023-05-02T09:00:52.308Z,5.00
2023-05-02T09:01:52.215Z,5.00
2023-05-02T09:02:52.253Z,5.20
2023-05-02T09:03:52.249Z,5.00
2023-05-02T09:04:52.178Z,5.00
2023-05-02T09:05:52.179Z,4.80
2023-05-02T09:06:52.315Z,4.50
2023-05-02T09:07:52.176Z,4.90
2023-05-02T09:08:52.139Z,4.60
2023-05-02T09:09:52.127Z,4.40
2023-05-02T09:10:52.125Z,4.30
2023-05-02T09:11:52.107Z,4.90
2023-05-02T09:12:52.203Z,4.50
2023-05-02T09:13:52.105Z,5.10
2023-05-02T09:14:52.077Z,4.60
2023-05-02T09:15:52.067Z,4.60
2023-05-02T09:16:52.130Z,4.50
2023-05-02T09:17:52.147Z,4.20
2023-05-02T09:18:52.031Z,4.20
2023-05-02T09:19:52.037Z,4.20
2023-05-02T09:20:52.031Z,4.00
2023-05-02T09:21:52.005Z,3.70
2023-05-02T09:22:52.031Z,3.70
2023-05-02T09:23:51.995Z,3.60
2023-05-02T09:24:51.982Z,3.40
2023-05-02T09:25:51.972Z,4.00
2023-05-02T09:26:51.955Z,3.90
2023-05-02T09:27:51.997Z,3.20
2023-05-02T09:28:51.940Z,3.40
2023-05-02T09:29:51.924Z,3.90
2023-05-02T09:30:51.929Z,3.60
2023-05-02T09:31:56.127Z,3.30
2023-05-02T09:32:52.942Z,3.30
2023-05-02T09:33:51.880Z,3.10
2023-05-02T09:34:51.883Z,3.20
2023-05-02T09:35:51.867Z,2.90
2023-05-02T09:36:51.924Z,3.10
2023-05-02T09:37:51.884Z,3.30
2023-05-02T09:38:51.839Z,3.30
2023-05-02T09:39:51.826Z,3.20
2023-05-02T09:40:51.823Z,3.30
2023-05-02T09:41:51.803Z,2.90
2023-05-02T09:42:51.813Z,2.80
2023-05-02T09:43:51.792Z,2.90
2023-05-02T09:44:51.770Z,3.00
2023-05-02T09:46:23.686Z,2.90
2023-05-02T09:46:51.766Z,2.80
2023-05-02T09:47:51.817Z,3.40
2023-05-02T09:48:51.780Z,3.30
2023-05-02T09:49:51.769Z,3.20
2023-05-02T09:50:51.722Z,3.50
2023-05-02T09:51:51.702Z,3.10
2023-05-02T09:52:51.730Z,3.00
2023-05-02T09:53:51.709Z,2.90
2023-05-02T09:54:51.674Z,3.30
2023-05-02T09:55:51.669Z,3.20
2023-05-02T09:56:51.662Z,3.20
2023-05-02T09:57:51.655Z,3.10
2023-05-02T09:58:51.642Z,3.00
2023-05-02T09:59:51.623Z,2.90
2023-05-02T10:00:51.656Z,2.90
2023-05-02T10:01:51.677Z,2.80
2023-05-02T10:02:51.654Z,2.80
2023-05-02T10:03:51.640Z,2.30
2023-05-02T10:04:51.578Z,2.70
2023-05-02T10:05:51.572Z,2.40
2023-05-02T10:06:51.681Z,2.70
2023-05-02T10:07:51.567Z,2.40
2023-05-02T10:08:51.544Z,2.60
2023-05-02T10:09:51.529Z,2.30
2023-05-02T10:10:51.514Z,3.00
2023-05-02T10:11:51.540Z,2.90
2023-05-02T10:12:51.509Z,2.80
2023-05-02T10:13:51.491Z,2.60
2023-05-02T10:14:51.472Z,3.10
2023-05-02T10:15:51.514Z,2.90
2023-05-02T10:16:51.454Z,2.90
2023-05-02T10:17:51.522Z,2.50
2023-05-02T10:18:51.434Z,2.60
2023-05-02T10:19:51.447Z,2.60
2023-05-02T10:20:51.429Z,2.50
2023-05-02T10:21:51.414Z,2.70
2023-05-02T10:22:51.419Z,3.20
2023-05-02T10:23:51.379Z,2.90
2023-05-02T10:24:51.380Z,3.00
2023-05-02T10:25:51.376Z,2.90
2023-05-02T10:26:51.362Z,3.10
2023-05-02T10:27:51.365Z,3.00
2023-05-02T10:28:51.345Z,3.10
2023-05-02T10:29:51.340Z,2.70
2023-05-02T10:30:51.317Z,3.00
2023-05-02T10:31:51.382Z,2.90
2023-05-02T10:32:51.356Z,2.70
2023-05-02T10:33:51.302Z,3.00
2023-05-02T10:34:51.275Z,3.30
2023-05-02T10:35:51.293Z,3.00
2023-05-02T10:36:51.298Z,2.60
2023-05-02T10:37:51.265Z,3.00
2023-05-02T10:38:51.260Z,3.00
2023-05-02T10:39:51.232Z,3.00
2023-05-02T10:40:51.902Z,3.00
2023-05-02T10:41:51.207Z,2.60
2023-05-02T10:42:51.200Z,2.70
2023-05-02T10:43:51.193Z,2.80
2023-05-02T10:44:51.186Z,3.00
2023-05-02T10:45:51.180Z,3.20
2023-05-02T10:46:51.185Z,3.20
2023-05-02T10:47:51.184Z,3.20
2023-05-02T10:48:51.129Z,3.50
2023-05-02T10:49:51.113Z,3.10
2023-05-02T10:50:51.128Z,3.50
2023-05-02T10:51:51.126Z,3.20
2023-05-02T10:52:51.095Z,3.10
2023-05-02T10:53:51.084Z,2.70
2023-05-02T10:54:51.069Z,3.10
2023-05-02T10:55:51.055Z,3.20
2023-05-02T10:56:51.061Z,3.50
2023-05-02T10:57:51.054Z,3.30
2023-05-02T10:58:51.055Z,3.50
2023-05-02T10:59:51.034Z,3.50
2023-05-02T11:00:51.089Z,3.50
2023-05-02T11:01:51.048Z,3.70
2023-05-02T11:02:51.132Z,3.60
2023-05-02T11:03:50.987Z,3.20
2023-05-02T11:04:50.983Z,3.20
2023-05-02T11:05:50.958Z,3.60
2023-05-02T11:06:50.979Z,3.60
2023-05-02T11:07:50.947Z,3.50
2023-05-02T11:08:50.944Z,3.80
2023-05-02T11:09:50.912Z,4.20
2023-05-02T11:10:50.907Z,3.80
2023-05-02T11:11:50.919Z,4.10
2023-05-02T11:12:50.936Z,4.00
2023-05-02T11:13:50.917Z,4.40
2023-05-02T11:14:50.921Z,4.70
2023-05-02T11:15:50.862Z,4.80
2023-05-02T11:16:50.955Z,5.20
2023-05-02T11:17:50.880Z,4.70
2023-05-02T11:18:50.832Z,4.70
2023-05-02T11:19:50.825Z,5.00
2023-05-02T11:20:50.812Z,4.80
2023-05-02T11:21:50.804Z,5.10
2023-05-02T11:22:50.792Z,5.60
2023-05-02T11:23:50.782Z,5.50
2023-05-02T11:24:50.765Z,5.60
2023-05-02T11:25:50.747Z,5.70
2023-05-02T11:26:50.744Z,5.80
2023-05-02T11:27:50.739Z,6.00
2023-05-02T11:28:50.720Z,6.10
2023-05-02T11:29:50.703Z,6.10
2023-05-02T11:30:50.699Z,6.00
2023-05-02T11:31:50.763Z,6.50
2023-05-02T11:32:50.737Z,6.80
2023-05-02T11:33:50.670Z,6.10
2023-05-02T11:34:50.647Z,6.70
2023-05-02T11:35:50.644Z,6.70
2023-05-02T11:36:50.650Z,6.80
2023-05-02T11:37:50.629Z,7.20
2023-05-02T11:38:50.607Z,6.90
2023-05-02T11:39:50.593Z,7.10
2023-05-02T11:40:50.584Z,7.30
2023-05-02T11:41:50.570Z,7.20
2023-05-02T11:42:50.590Z,10.40
2023-05-02T11:43:50.560Z,6.60
2023-05-02T11:44:50.540Z,6.50
2023-05-02T11:45:50.691Z,6.50
2023-05-02T11:46:50.563Z,6.80
2023-05-02T11:47:50.577Z,7.50
2023-05-02T11:48:50.497Z,7.30
2023-05-02T11:49:50.483Z,7.70
2023-05-02T11:50:50.916Z,7.30
2023-05-02T11:51:50.477Z,7.00
2023-05-02T11:52:50.490Z,7.30
2023-05-02T11:53:50.457Z,9.50
2023-05-02T11:54:50.447Z,7.60
2023-05-02T11:55:50.440Z,8.80
2023-05-02T11:56:50.460Z,8.10
2023-05-02T11:57:50.440Z,8.60
2023-05-02T11:58:50.400Z,8.10
2023-05-02T11:59:50.393Z,7.40
2023-05-02T12:00:50.392Z,7.90
2023-05-02T12:01:50.381Z,7.50
2023-05-02T12:02:50.424Z,7.80
2023-05-02T12:03:50.526Z,7.40
2023-05-02T12:04:50.350Z,8.10
2023-05-02T12:05:50.371Z,7.50
2023-05-02T12:06:50.356Z,8.00
2023-05-02T12:07:50.331Z,8.10
2023-05-02T12:08:50.301Z,8.20
2023-05-02T12:09:50.294Z,7.80
2023-05-02T12:10:50.284Z,7.30
2023-05-02T12:11:50.277Z,8.10
2023-05-02T12:12:50.279Z,7.60
2023-05-02T12:13:50.766Z,7.50
2023-05-02T12:14:50.243Z,7.80
2023-05-02T12:15:50.319Z,7.40
2023-05-02T12:16:50.274Z,6.80
2023-05-02T12:17:50.270Z,7.80
2023-05-02T12:18:50.222Z,7.60
2023-05-02T12:19:50.204Z,6.90
2023-05-02T12:20:50.183Z,7.60
2023-05-02T12:21:50.202Z,6.90
2023-05-02T12:22:50.171Z,7.30
2023-05-02T12:23:50.151Z,7.00
2023-05-02T12:24:50.164Z,6.60
2023-05-02T12:25:50.136Z,7.00
2023-05-02T12:26:51.117Z,6.50
2023-05-02T12:27:50.116Z,6.40
2023-05-02T12:28:50.154Z,6.80
2023-05-02T12:29:50.089Z,7.90
2023-05-02T12:30:50.094Z,7.60
2023-05-02T12:31:50.126Z,8.00
2023-05-02T12:32:50.132Z,6.80
2023-05-02T12:33:50.052Z,7.50
2023-05-02T12:34:50.048Z,7.20
2023-05-02T12:35:50.068Z,6.80
2023-05-02T12:36:50.026Z,6.80
2023-05-02T12:37:50.025Z,6.70
2023-05-02T12:38:49.998Z,6.40
2023-05-02T12:39:50.040Z,6.40
2023-05-02T12:40:49.971Z,7.20
2023-05-02T12:41:49.962Z,6.40
2023-05-02T12:42:50.008Z,6.40
2023-05-02T12:43:49.952Z,6.30
2023-05-02T12:44:49.954Z,6.70
2023-05-02T12:45:49.962Z,5.80
2023-05-02T12:46:49.946Z,6.40
2023-05-02T12:47:49.980Z,6.50
2023-05-02T12:48:49.891Z,6.80
2023-05-02T12:49:49.884Z,6.40
2023-05-02T12:50:49.874Z,7.00
2023-05-02T12:51:49.862Z,6.10
2023-05-02T12:52:49.873Z,6.30
2023-05-02T12:53:49.854Z,6.60
2023-05-02T12:54:49.845Z,6.50
2023-05-02T12:55:49.823Z,6.20
2023-05-02T12:56:49.809Z,6.20
2023-05-02T12:57:49.818Z,6.70
2023-05-02T12:58:49.784Z,6.30
2023-05-02T12:59:49.776Z,6.80
2023-05-02T13:00:49.794Z,6.50
2023-05-02T13:01:49.759Z,6.70
2023-05-02T13:02:49.795Z,6.50
2023-05-02T13:03:49.844Z,6.30
2023-05-02T13:04:49.785Z,6.80
2023-05-02T13:05:49.715Z,6.70
2023-05-02T13:06:49.796Z,6.30